createdAt,value
2023-05-08T00:01:07.444Z,5.20
2023-05-08T00:03:36.328Z,4.47
2023-05-08T00:06:06.011Z,5.60
2023-05-08T00:08:34.807Z,5.60
2023-05-08T00:11:04.743Z,5.90
2023-05-08T00:13:33.287Z,6.15
2023-05-08T00:16:01.953Z,5.68
2023-05-08T00:18:30.572Z,5.10
2023-05-08T00:20:59.089Z,6.13
2023-05-08T00:23:27.727Z,5.35
2023-05-08T00:25:56.417Z,4.88
2023-05-08T00:28:26.463Z,6.80
2023-05-08T00:30:55.297Z,5.68
2023-05-08T00:33:23.932Z,4.82
2023-05-08T00:35:52.495Z,5.30
2023-05-08T00:38:21.300Z,4.80
2023-05-08T00:40:49.760Z,5.93
2023-05-08T00:43:19.578Z,5.18
2023-05-08T00:45:49.555Z,6.22
2023-05-08T00:48:18.653Z,5.00
2023-05-08T00:50:47.161Z,4.85
2023-05-08T00:53:16.359Z,4.82
2023-05-08T00:55:45.601Z,6.45
2023-05-08T00:58:14.900Z,5.18
2023-05-08T01:00:45.794Z,5.13
2023-05-08T01:03:16.430Z,6.20
2023-05-08T01:05:45.183Z,4.75
2023-05-08T01:08:13.738Z,5.07
2023-05-08T01:10:49.427Z,5.13
2023-05-08T01:13:29.497Z,5.38
2023-05-08T01:16:08.204Z,5.32
2023-05-08T01:18:43.857Z,5.07
2023-05-08T01:21:19.332Z,5.10
2023-05-08T01:24:24.585Z,4.97
2023-05-08T01:27:27.055Z,5.15
2023-05-08T01:30:16.710Z,4.75
2023-05-08T01:32:52.105Z,4.75
2023-05-08T01:35:28.515Z,4.95
2023-05-08T01:38:04.836Z,6.10
2023-05-08T01:40:38.333Z,4.60
2023-05-08T01:43:19.852Z,5.93
2023-05-08T01:45:51.368Z,4.45
2023-05-08T01:48:27.169Z,4.20
2023-05-08T01:51:01.500Z,4.22
2023-05-08T01:53:33.190Z,4.22
2023-05-08T01:56:11.768Z,4.25
2023-05-08T01:58:42.841Z,4.53
2023-05-08T02:01:13.778Z,4.60
2023-05-08T02:03:45.431Z,5.13
2023-05-08T02:06:16.882Z,6.70
2023-05-08T02:08:48.402Z,4.47
2023-05-08T02:11:20.391Z,3.80
2023-05-08T02:13:52.019Z,4.57
2023-05-08T02:16:22.988Z,4.22
2023-05-08T02:18:55.582Z,3.90
2023-05-08T02:21:25.116Z,5.55
2023-05-08T02:23:55.503Z,4.40
2023-05-08T02:26:25.870Z,4.43
2023-05-08T02:28:56.750Z,4.30
2023-05-08T02:31:26.389Z,5.05
2023-05-08T02:33:58.003Z,4.65
2023-05-08T02:36:29.509Z,4.65
2023-05-08T02:39:02.404Z,4.00
2023-05-08T02:41:33.504Z,4.50
2023-05-08T02:44:02.398Z,4.20
2023-05-08T02:46:40.595Z,4.45
2023-05-08T02:49:20.364Z,3.97
2023-05-08T02:51:56.275Z,4.55
2023-05-08T02:54:34.243Z,5.72
2023-05-08T02:57:07.704Z,4.72
2023-05-08T02:59:41.252Z,4.40
2023-05-08T03:02:15.250Z,5.20
2023-05-08T03:04:50.413Z,4.43
2023-05-08T03:07:22.829Z,4.13
2023-05-08T03:09:56.486Z,5.57
2023-05-08T03:12:27.956Z,4.00
2023-05-08T03:15:04.485Z,4.00
2023-05-08T03:17:35.171Z,4.22
2023-05-08T03:20:09.459Z,4.68
2023-05-08T03:22:39.999Z,5.10
2023-05-08T03:25:11.287Z,4.68
2023-05-08T03:27:43.111Z,4.57
2023-05-08T03:30:14.476Z,4.32
2023-05-08T03:32:47.431Z,4.20
2023-05-08T03:35:18.349Z,3.85
2023-05-08T03:37:47.203Z,4.18
2023-05-08T03:40:16.126Z,4.20
2023-05-08T03:42:45.237Z,5.20
2023-05-08T03:45:17.001Z,3.80
2023-05-08T03:47:47.588Z,4.13
2023-05-08T03:50:19.977Z,3.92
2023-05-08T03:52:49.588Z,4.30
2023-05-08T03:55:18.272Z,4.22
2023-05-08T03:57:58.136Z,4.07
2023-05-08T04:00:38.568Z,4.85
2023-05-08T04:03:20.435Z,4.25
2023-05-08T04:05:54.649Z,4.15
2023-05-08T04:08:28.611Z,4.05
2023-05-08T04:11:07.249Z,4.57
2023-05-08T04:13:41.542Z,5.28
2023-05-08T04:16:18.479Z,4.70
2023-05-08T04:18:48.916Z,5.28
2023-05-08T04:21:24.722Z,4.65
2023-05-08T04:23:58.324Z,4.80
2023-05-08T04:26:28.259Z,4.78
2023-05-08T04:28:59.075Z,4.80
2023-05-08T04:31:29.532Z,6.22
2023-05-08T04:33:59.245Z,5.88
2023-05-08T04:36:33.958Z,6.30
2023-05-08T04:39:05.173Z,5.40
2023-05-08T04:41:35.165Z,6.72
2023-05-08T04:44:04.544Z,5.32
2023-05-08T04:46:33.421Z,5.68
2023-05-08T04:49:02.206Z,5.60
2023-05-08T04:51:36.418Z,6.07
2023-05-08T04:54:05.345Z,5.53
2023-05-08T04:56:33.886Z,5.97
2023-05-08T04:59:02.879Z,6.60
2023-05-08T05:01:31.649Z,6.22
2023-05-08T05:04:00.388Z,6.03
2023-05-08T05:06:29.621Z,6.70
2023-05-08T05:09:00.214Z,6.07
2023-05-08T05:11:29.945Z,7.05
2023-05-08T05:13:59.792Z,6.28
2023-05-08T05:16:29.154Z,6.72
2023-05-08T05:18:58.886Z,7.13
2023-05-08T05:21:29.052Z,7.00
2023-05-08T05:23:59.661Z,7.20
2023-05-08T05:26:29.070Z,7.00
2023-05-08T05:29:01.749Z,9.13
2023-05-08T05:31:31.135Z,5.85
2023-05-08T05:34:00.931Z,5.90
2023-05-08T05:36:30.107Z,6.72
2023-05-08T05:39:01.273Z,6.00
2023-05-08T05:41:31.082Z,6.70
2023-05-08T05:44:01.198Z,6.88
2023-05-08T05:46:32.786Z,6.60
2023-05-08T05:49:04.665Z,6.47
2023-05-08T05:51:38.533Z,6.90
2023-05-08T05:54:09.106Z,6.57
2023-05-08T05:56:38.647Z,6.55
2023-05-08T05:59:08.305Z,6.80
2023-05-08T06:01:37.404Z,6.95
2023-05-08T06:04:06.895Z,7.00
2023-05-08T06:06:36.642Z,7.07
2023-05-08T06:09:07.171Z,6.38
2023-05-08T06:11:40.814Z,7.07
2023-05-08T06:14:11.146Z,6.15
2023-05-08T06:16:41.871Z,7.50
2023-05-08T06:19:11.478Z,7.00
2023-05-08T06:21:41.436Z,6.18
2023-05-08T06:24:10.909Z,8.38
2023-05-08T06:26:41.800Z,7.10
2023-05-08T06:29:11.732Z,5.57
2023-05-08T06:31:41.455Z,6.50
2023-05-08T06:34:10.406Z,6.97
2023-05-08T06:36:39.224Z,7.25
2023-05-08T06:39:08.204Z,6.57
2023-05-08T06:41:36.943Z,6.75
2023-05-08T06:44:10.368Z,6.55
2023-05-08T06:46:39.385Z,6.57
2023-05-08T06:49:07.969Z,6.47
2023-05-08T06:51:38.247Z,6.38
2023-05-08T06:54:08.369Z,6.70
2023-05-08T06:56:36.862Z,7.32
2023-05-08T06:59:08.794Z,6.60
2023-05-08T07:01:39.364Z,6.95
2023-05-08T07:04:07.997Z,6.10
2023-05-08T07:06:36.513Z,6.50
2023-05-08T07:09:05.102Z,6.35
2023-05-08T07:11:33.735Z,6.32
2023-05-08T07:14:02.268Z,5.88
2023-05-08T07:16:30.752Z,6.13
2023-05-08T07:19:00.647Z,6.00
2023-05-08T07:21:29.620Z,5.80
2023-05-08T07:23:57.925Z,6.03
2023-05-08T07:26:26.580Z,5.75
2023-05-08T07:28:55.158Z,8.15
2023-05-08T07:31:23.763Z,7.78
2023-05-08T07:33:52.283Z,6.53
2023-05-08T07:36:22.814Z,6.72
2023-05-08T07:38:51.324Z,6.15
2023-05-08T07:41:20.044Z,6.47
2023-05-08T07:43:48.622Z,5.93
2023-05-08T07:46:18.222Z,6.18
2023-05-08T07:48:46.783Z,7.63
2023-05-08T07:51:15.424Z,7.55
2023-05-08T07:53:45.339Z,7.57
2023-05-08T07:56:13.635Z,7.47
2023-05-08T07:58:42.702Z,7.25
2023-05-08T08:01:11.844Z,6.68
2023-05-08T08:03:40.353Z,6.57
2023-05-08T08:06:08.894Z,6.60
2023-05-08T08:08:37.367Z,6.60
2023-05-08T08:11:07.277Z,7.57
2023-05-08T08:13:35.906Z,8.23
2023-05-08T08:16:04.992Z,7.57
2023-05-08T08:18:35.974Z,8.65
2023-05-08T08:21:06.593Z,8.02
2023-05-08T08:23:35.465Z,6.47
2023-05-08T08:26:03.850Z,6.72
2023-05-08T08:28:33.747Z,6.25
2023-05-08T08:31:02.240Z,6.07
2023-05-08T08:33:30.711Z,7.35
2023-05-08T08:35:59.545Z,6.22
2023-05-08T08:38:28.034Z,6.85
2023-05-08T08:40:56.636Z,8.43
2023-05-08T08:43:25.032Z,8.88
2023-05-08T08:45:54.858Z,7.32
2023-05-08T08:48:28.579Z,6.43
2023-05-08T08:51:03.888Z,9.52
2023-05-08T08:53:36.756Z,6.93
2023-05-08T08:56:08.905Z,6.85
2023-05-08T08:58:39.673Z,6.55
2023-05-08T09:01:15.151Z,6.22
2023-05-08T09:03:43.828Z,8.98
2023-05-08T09:06:13.322Z,7.07
2023-05-08T09:08:42.703Z,6.68
2023-05-08T09:11:11.156Z,5.85
2023-05-08T09:13:39.589Z,7.35
2023-05-08T09:16:12.573Z,6.57
2023-05-08T09:18:41.198Z,5.65
2023-05-08T09:21:09.671Z,6.65
2023-05-08T09:23:38.089Z,5.78
2023-05-08T09:26:06.570Z,5.95
2023-05-08T09:28:34.977Z,5.65
2023-05-08T09:31:03.497Z,6.25
2023-05-08T09:33:33.524Z,6.40
2023-05-08T09:36:02.156Z,5.78
2023-05-08T09:38:34.846Z,6.00
2023-05-08T09:41:10.705Z,6.50
2023-05-08T09:43:39.845Z,5.35
2023-05-08T09:46:23.197Z,5.40
2023-05-08T09:48:57.909Z,4.88
2023-05-08T09:51:27.529Z,4.65
2023-05-08T09:53:57.671Z,4.78
2023-05-08T09:56:33.912Z,4.68
2023-05-08T09:59:04.782Z,5.00
2023-05-08T10:01:35.613Z,4.88
2023-05-08T10:04:06.404Z,5.35
2023-05-08T10:06:36.377Z,4.80
2023-05-08T10:09:12.232Z,5.50
2023-05-08T10:11:41.776Z,5.07
2023-05-08T10:14:10.589Z,5.45
2023-05-08T10:16:44.756Z,5.38
2023-05-08T10:19:16.530Z,5.10
2023-05-08T10:21:49.272Z,5.10
2023-05-08T10:24:20.641Z,5.88
2023-05-08T10:27:06.905Z,6.53
2023-05-08T10:29:43.930Z,5.75
2023-05-08T10:32:16.361Z,4.40
2023-05-08T10:34:50.697Z,5.38
2023-05-08T10:39:49.137Z,5.15
2023-05-08T10:42:17.930Z,5.13
2023-05-08T10:44:47.497Z,5.00
2023-05-08T10:47:23.090Z,5.38
2023-05-08T10:50:02.850Z,5.35
2023-05-08T10:52:38.910Z,4.97
2023-05-08T10:55:24.335Z,6.15
2023-05-08T10:58:07.667Z,5.80
2023-05-08T11:01:12.569Z,4.45
2023-05-08T11:03:43.753Z,4.82
2023-05-08T11:06:16.747Z,4.13
2023-05-08T11:08:49.901Z,4.00
2023-05-08T11:11:27.136Z,4.57
2023-05-08T11:14:01.095Z,4.10
2023-05-08T11:19:19.132Z,4.28
2023-05-08T11:22:14.650Z,4.93
2023-05-08T11:24:51.294Z,5.47
2023-05-08T11:27:39.322Z,3.97
2023-05-08T11:30:26.482Z,3.80
2023-05-08T11:33:15.658Z,3.53
2023-05-08T11:35:55.882Z,3.92
2023-05-08T11:38:38.093Z,3.60
2023-05-08T11:41:08.808Z,4.05
2023-05-08T11:44:04.649Z,4.50
2023-05-08T11:46:44.474Z,4.28
2023-05-08T11:49:17.698Z,3.72
2023-05-08T11:51:49.317Z,4.07
2023-05-08T11:54:21.848Z,4.80
2023-05-08T11:56:52.550Z,4.30
2023-05-08T11:59:22.475Z,5.22
2023-05-08T12:04:24.116Z,4.55
2023-05-08T12:06:59.174Z,4.82
2023-05-08T12:09:30.228Z,4.63
2023-05-08T12:11:59.320Z,4.30
2023-05-08T12:14:27.938Z,3.60
2023-05-08T12:16:57.109Z,4.30
2023-05-08T12:19:25.879Z,3.80
2023-05-08T12:21:58.250Z,4.20
2023-05-08T12:24:27.028Z,4.55
2023-05-08T12:26:58.168Z,3.90
2023-05-08T12:29:27.300Z,4.22
2023-05-08T12:31:56.153Z,3.95
2023-05-08T12:34:26.028Z,4.53
2023-05-08T12:37:03.469Z,4.22
2023-05-08T12:39:38.194Z,4.70
2023-05-08T12:42:08.535Z,4.70
2023-05-08T12:44:37.430Z,5.10
2023-05-08T12:47:06.555Z,4.18
2023-05-08T12:49:35.082Z,4.10
2023-05-08T12:52:05.313Z,3.83
2023-05-08T12:54:37.943Z,3.90
2023-05-08T12:57:14.951Z,4.53
2023-05-08T12:59:44.776Z,4.25
2023-05-08T13:02:15.110Z,4.25
2023-05-08T13:04:43.993Z,3.60
2023-05-08T13:07:12.686Z,3.38
2023-05-08T13:09:41.323Z,3.40
2023-05-08T13:12:09.801Z,4.13
2023-05-08T13:14:40.332Z,3.50
2023-05-08T13:17:08.786Z,4.35
2023-05-08T13:19:37.313Z,3.88
2023-05-08T13:22:05.789Z,3.75
2023-05-08T13:24:34.166Z,3.60
2023-05-08T13:27:03.208Z,4.93
2023-05-08T13:29:31.676Z,3.95
2023-05-08T13:32:01.554Z,4.90
2023-05-08T13:34:30.073Z,4.30
2023-05-08T13:36:58.738Z,4.03
2023-05-08T13:39:31.982Z,4.53
2023-05-08T13:42:00.354Z,4.18
2023-05-08T13:44:28.776Z,3.90
2023-05-08T13:46:57.277Z,4.03
2023-05-08T13:49:27.656Z,4.10
2023-05-08T13:51:58.731Z,3.90
2023-05-08T13:54:27.312Z,3.80
2023-05-08T13:56:55.852Z,3.92
2023-05-08T13:59:24.511Z,4.40
2023-05-08T14:01:52.994Z,4.10
2023-05-08T14:04:21.416Z,4.25
2023-05-08T14:06:51.282Z,3.40
2023-05-08T14:09:19.898Z,4.95
2023-05-08T14:11:48.337Z,3.83
2023-05-08T14:14:16.880Z,4.07
2023-05-08T14:16:45.328Z,3.28
2023-05-08T14:19:13.796Z,3.72
2023-05-08T14:21:42.356Z,3.60
2023-05-08T14:24:14.932Z,3.60
2023-05-08T14:26:44.873Z,3.45
2023-05-08T14:29:13.462Z,3.65
2023-05-08T14:31:41.990Z,3.40
2023-05-08T14:34:10.362Z,4.00
2023-05-08T14:36:38.757Z,4.05
2023-05-08T14:39:07.210Z,3.70
2023-05-08T14:41:38.297Z,3.50
2023-05-08T14:44:06.816Z,4.28
2023-05-08T14:46:35.331Z,4.00
2023-05-08T14:49:04.083Z,4.22
2023-05-08T14:51:32.613Z,4.60
2023-05-08T14:54:01.252Z,4.25
2023-05-08T14:56:34.588Z,4.30
2023-05-08T14:59:10.628Z,3.55
2023-05-08T15:01:42.782Z,4.57
2023-05-08T15:04:11.890Z,4.03
2023-05-08T15:06:41.350Z,4.22
2023-05-08T15:09:12.396Z,3.70
2023-05-08T15:11:41.196Z,5.00
2023-05-08T15:14:11.075Z,4.47
2023-05-08T15:16:39.490Z,4.00
2023-05-08T15:19:09.357Z,4.13
2023-05-08T15:21:38.296Z,4.03
2023-05-08T15:24:10.271Z,4.80
2023-05-08T15:26:38.689Z,4.63
2023-05-08T15:29:07.347Z,4.30
2023-05-08T15:31:37.294Z,4.57
2023-05-08T15:34:05.761Z,4.72
2023-05-08T15:36:35.335Z,5.70
2023-05-08T15:39:04.182Z,3.90
2023-05-08T15:41:32.668Z,4.53
2023-05-08T15:44:01.357Z,4.97
2023-05-08T15:46:29.916Z,4.63
2023-05-08T15:49:01.224Z,4.57
2023-05-08T15:51:31.775Z,5.05
2023-05-08T15:54:00.368Z,5.43
2023-05-08T15:56:28.873Z,5.47
2023-05-08T15:58:57.362Z,5.25
2023-05-08T16:01:25.893Z,4.82
2023-05-08T16:03:54.362Z,5.50
2023-05-08T16:06:24.176Z,5.10
2023-05-08T16:08:52.862Z,5.00
2023-05-08T16:11:21.613Z,5.40
2023-05-08T16:13:50.226Z,5.50
2023-05-08T16:16:18.884Z,5.80
2023-05-08T16:18:47.518Z,5.28
2023-05-08T16:21:16.113Z,6.10
2023-05-08T16:23:46.075Z,5.85
2023-05-08T16:26:16.558Z,5.15
2023-05-08T16:28:45.074Z,6.65
2023-05-08T16:31:14.007Z,6.07
2023-05-08T16:33:42.682Z,5.20
2023-05-08T16:36:11.340Z,7.13
2023-05-08T16:38:39.994Z,5.72
2023-05-08T16:41:10.279Z,5.80
2023-05-08T16:43:38.785Z,6.13
2023-05-08T16:46:07.745Z,6.78
2023-05-08T16:48:36.265Z,6.10
2023-05-08T16:51:05.079Z,5.78
2023-05-08T16:53:33.547Z,8.35
2023-05-08T16:56:02.307Z,6.43
2023-05-08T16:58:32.437Z,6.07
2023-05-08T17:01:00.980Z,5.85
2023-05-08T17:03:29.732Z,6.18
2023-05-08T17:05:58.533Z,6.63
2023-05-08T17:08:27.226Z,6.68
2023-05-08T17:10:55.710Z,5.80
2023-05-08T17:13:24.430Z,6.75
2023-05-08T17:15:54.389Z,6.72
2023-05-08T17:18:23.046Z,5.38
2023-05-08T17:20:51.681Z,7.20
2023-05-08T17:23:20.203Z,5.57
2023-05-08T17:25:48.631Z,5.57
2023-05-08T17:28:17.172Z,6.13
2023-05-08T17:30:46.504Z,5.63
2023-05-08T17:33:17.671Z,5.50
2023-05-08T17:35:46.266Z,5.90
2023-05-08T17:38:14.989Z,5.70
2023-05-08T17:40:43.453Z,5.00
2023-05-08T17:43:12.272Z,5.40
2023-05-08T17:45:41.556Z,5.07
2023-05-08T17:48:10.147Z,5.18
2023-05-08T17:50:42.184Z,5.63
2023-05-08T17:53:10.621Z,5.32
2023-05-08T17:55:39.165Z,5.90
2023-05-08T17:58:07.718Z,5.07
2023-05-08T18:00:36.294Z,5.40
2023-05-08T18:03:05.065Z,5.43
2023-05-08T18:05:33.969Z,5.30
2023-05-08T18:08:04.792Z,5.80
2023-05-08T18:10:36.057Z,4.60
2023-05-08T18:13:06.078Z,5.60
2023-05-08T18:15:36.252Z,5.15
2023-05-08T18:18:06.841Z,5.18
2023-05-08T18:20:36.240Z,5.40
2023-05-08T18:23:07.139Z,5.25
2023-05-08T18:25:40.569Z,4.57
2023-05-08T18:28:11.413Z,5.10
2023-05-08T18:30:41.312Z,4.88
2023-05-08T18:33:13.677Z,4.90
2023-05-08T18:35:42.868Z,4.50
2023-05-08T18:38:13.843Z,4.43
2023-05-08T18:40:43.286Z,4.57
2023-05-08T18:43:15.013Z,4.63
2023-05-08T18:45:44.720Z,4.40
2023-05-08T18:48:16.392Z,4.80
2023-05-08T18:50:47.266Z,5.10
2023-05-08T18:53:19.116Z,4.50
2023-05-08T18:55:48.888Z,4.53
2023-05-08T18:58:18.043Z,4.82
2023-05-08T19:00:46.877Z,4.82
2023-05-08T19:03:19.068Z,4.95
2023-05-08T19:05:48.114Z,6.05
2023-05-08T19:08:19.003Z,4.97
2023-05-08T19:10:47.677Z,4.43
2023-05-08T19:13:16.555Z,7.03
2023-05-08T19:15:45.563Z,4.55
2023-05-08T19:18:18.830Z,5.07
2023-05-08T19:20:47.957Z,5.35
2023-05-08T19:23:18.668Z,5.15
2023-05-08T19:25:47.481Z,4.75
2023-05-08T19:28:16.264Z,4.80
2023-05-08T19:30:45.692Z,4.93
2023-05-08T19:33:15.040Z,5.03
2023-05-08T19:35:44.181Z,4.75
2023-05-08T19:38:13.690Z,4.63
2023-05-08T19:40:56.731Z,4.85
2023-05-08T19:43:28.094Z,5.75
2023-05-08T19:45:57.702Z,4.95
2023-05-08T19:48:26.671Z,4.93
2023-05-08T19:50:55.483Z,4.57
2023-05-08T19:53:26.982Z,5.00
2023-05-08T19:55:57.742Z,4.63
2023-05-08T19:58:26.764Z,4.47
2023-05-08T20:00:56.330Z,4.68
2023-05-08T20:03:27.042Z,4.85
2023-05-08T20:05:56.203Z,4.85
2023-05-08T20:08:28.819Z,5.20
2023-05-08T20:11:02.586Z,4.28
2023-05-08T20:13:34.544Z,5.30
2023-05-08T20:16:03.801Z,4.50
2023-05-08T20:18:35.296Z,4.55
2023-05-08T20:21:05.694Z,4.93
2023-05-08T20:23:34.785Z,4.35
2023-05-08T20:26:07.583Z,4.60
2023-05-08T20:28:37.090Z,4.10
2023-05-08T20:31:06.977Z,4.93
2023-05-08T20:33:38.290Z,5.07
2023-05-08T20:36:09.630Z,5.03
2023-05-08T20:38:39.714Z,4.22
2023-05-08T20:41:11.300Z,4.55
2023-05-08T20:43:40.898Z,4.60
2023-05-08T20:46:10.480Z,4.30
2023-05-08T20:48:39.448Z,4.63
2023-05-08T20:51:08.096Z,4.65
2023-05-08T20:53:36.574Z,5.25
2023-05-08T20:56:06.197Z,5.15
2023-05-08T20:58:46.118Z,4.53
2023-05-08T21:01:15.041Z,4.85
2023-05-08T21:03:43.862Z,5.10
2023-05-08T21:06:15.449Z,6.03
2023-05-08T21:08:44.639Z,4.43
2023-05-08T21:11:13.509Z,4.85
2023-05-08T21:13:43.900Z,4.65
2023-05-08T21:16:14.091Z,5.00
2023-05-08T21:18:42.716Z,5.05
2023-05-08T21:21:18.013Z,5.05
2023-05-08T21:23:47.171Z,6.55
2023-05-08T21:26:15.829Z,5.30
2023-05-08T21:28:44.734Z,5.38
2023-05-08T21:31:14.873Z,5.47
2023-05-08T21:33:43.607Z,5.15
2023-05-08T21:36:12.323Z,5.57
2023-05-08T21:38:41.025Z,5.55
2023-05-08T21:41:12.575Z,5.32
2023-05-08T21:43:41.166Z,5.20
2023-05-08T21:46:10.164Z,6.32
2023-05-08T21:48:40.206Z,6.05
2023-05-08T21:51:08.815Z,5.60
2023-05-08T21:53:37.557Z,5.82
2023-05-08T21:56:06.646Z,5.50
2023-05-08T21:58:35.275Z,5.53
2023-05-08T22:01:03.881Z,6.07
2023-05-08T22:03:32.731Z,6.10
2023-05-08T22:06:02.839Z,5.82
2023-05-08T22:08:31.569Z,5.63
2023-05-08T22:11:08.882Z,6.50
2023-05-08T22:13:37.568Z,5.97
2023-05-08T22:16:07.081Z,5.88
2023-05-08T22:18:35.770Z,5.93
2023-05-08T22:21:05.834Z,6.60
2023-05-08T22:23:34.942Z,6.60
2023-05-08T22:26:04.052Z,6.68
2023-05-08T22:28:32.762Z,7.70
2023-05-08T22:31:01.351Z,6.75
2023-05-08T22:33:32.738Z,6.45
2023-05-08T22:36:01.397Z,6.30
2023-05-08T22:38:31.408Z,5.95
2023-05-08T22:41:00.264Z,6.70
2023-05-08T22:43:29.124Z,6.05
2023-05-08T22:45:58.467Z,6.57
2023-05-08T22:48:27.323Z,5.68
2023-05-08T22:50:56.063Z,6.72
2023-05-08T22:53:24.961Z,5.55
2023-05-08T22:55:55.269Z,5.13
2023-05-08T22:58:27.374Z,6.60
2023-05-08T23:00:56.380Z,5.25
2023-05-08T23:03:25.007Z,6.32
2023-05-08T23:05:53.712Z,6.10
2023-05-08T23:08:22.933Z,6.40
2023-05-08T23:10:51.691Z,6.10
2023-05-08T23:13:21.947Z,6.13
2023-05-08T23:15:50.816Z,6.28
2023-05-08T23:18:19.493Z,7.03
2023-05-08T23:20:48.142Z,7.10
2023-05-08T23:23:16.726Z,7.38
2023-05-08T23:25:45.273Z,6.82
2023-05-08T23:28:13.886Z,7.82
2023-05-08T23:30:43.809Z,6.97
2023-05-08T23:33:12.418Z,9.02
2023-05-08T23:35:40.971Z,7.10
2023-05-08T23:38:09.691Z,7.25
2023-05-08T23:40:38.489Z,7.18
2023-05-08T23:43:07.230Z,6.95
2023-05-08T23:45:35.820Z,7.13
2023-05-08T23:48:06.369Z,7.65
2023-05-08T23:50:35.079Z,7.60
2023-05-08T23:53:03.797Z,6.57
2023-05-08T23:55:32.543Z,7.70
2023-05-08T23:58:01.606Z,6.93
